createdAt,value
2023-05-05T00:00:03.834Z,0
2023-05-05T00:16:01.261Z,0
2023-05-05T00:31:03.457Z,0
2023-05-05T00:46:00.705Z,0
2023-05-05T01:00:02.738Z,0
2023-05-05T01:16:04.913Z,0
2023-05-05T01:31:02.062Z,0
2023-05-05T01:46:04.115Z,0
2023-05-05T02:00:00.997Z,0
2023-05-05T02:16:03.448Z,0
2023-05-05T02:31:00.497Z,0
2023-05-05T02:46:02.697Z,0
2023-05-05T03:00:04.702Z,0
2023-05-05T03:16:02.132Z,0
2023-05-05T03:31:04.136Z,0
2023-05-05T03:46:01.212Z,0
2023-05-05T04:00:03.303Z,8
2023-05-05T04:16:00.727Z,19
2023-05-05T04:31:02.755Z,41
2023-05-05T04:46:04.760Z,46
2023-05-05T05:00:01.761Z,89
2023-05-05T05:16:04.108Z,111
2023-05-05T05:31:01.196Z,129
2023-05-05T05:46:03.569Z,214
2023-05-05T06:00:01.960Z,265
2023-05-05T06:16:02.933Z,275
2023-05-05T06:31:05.147Z,323
2023-05-05T06:46:07.656Z,427
2023-05-05T07:00:04.477Z,470
2023-05-05T07:16:01.966Z,514
2023-05-05T07:31:04.374Z,570
2023-05-05T07:46:01.227Z,577
2023-05-05T08:00:03.186Z,588
2023-05-05T08:16:00.492Z,595
2023-05-05T08:31:02.748Z,698
2023-05-05T08:46:04.829Z,716
2023-05-05T09:00:01.823Z,749
2023-05-05T09:16:04.169Z,706
2023-05-05T09:31:01.403Z,704
2023-05-05T09:46:03.668Z,760
2023-05-05T10:00:00.393Z,791
2023-05-05T10:16:02.556Z,845
2023-05-05T10:31:16.197Z,855
2023-05-05T10:46:01.967Z,859
2023-05-05T11:00:03.887Z,861
2023-05-05T11:16:01.337Z,862
2023-05-05T11:31:03.572Z,857
2023-05-05T11:46:00.861Z,854
2023-05-05T12:00:02.931Z,846
2023-05-05T12:16:00.357Z,835
2023-05-05T12:31:02.399Z,818
2023-05-05T12:46:07.156Z,804
2023-05-05T13:00:01.835Z,786
2023-05-05T13:16:03.862Z,763
2023-05-05T13:31:01.114Z,737
2023-05-05T13:46:18.592Z,717
2023-05-05T14:00:00.221Z,716
2023-05-05T14:16:02.394Z,672
2023-05-05T14:31:04.604Z,618
2023-05-05T14:46:01.670Z,579
2023-05-05T15:00:03.553Z,547
2023-05-05T15:16:00.226Z,522
2023-05-05T15:31:02.364Z,485
2023-05-05T15:46:04.717Z,437
2023-05-05T16:00:02.037Z,383
2023-05-05T16:16:04.302Z,278
2023-05-05T16:31:01.541Z,195
2023-05-05T16:46:03.622Z,139
2023-05-05T17:00:00.682Z,93
2023-05-05T17:16:03.045Z,63
2023-05-05T17:31:05.001Z,48
2023-05-05T17:46:02.367Z,33
2023-05-05T18:00:04.440Z,22
2023-05-05T18:16:01.684Z,7
2023-05-05T18:31:03.637Z,0
2023-05-05T18:46:00.779Z,0
2023-05-05T19:00:02.789Z,0
2023-05-05T19:16:04.983Z,0
2023-05-05T19:31:02.025Z,0
2023-05-05T19:46:04.421Z,0
2023-05-05T20:00:01.373Z,0
2023-05-05T20:16:03.491Z,0
2023-05-05T20:31:00.802Z,0
2023-05-05T20:46:02.700Z,0
2023-05-05T21:00:04.804Z,0
2023-05-05T21:16:02.221Z,0
2023-05-05T21:31:21.096Z,0
2023-05-05T21:46:01.600Z,0
2023-05-05T22:00:03.711Z,0
2023-05-05T22:16:01.109Z,0
2023-05-05T22:31:03.469Z,0
2023-05-05T22:46:00.430Z,0
2023-05-05T23:00:02.294Z,0
2023-05-05T23:16:01.861Z,0
2023-05-05T23:31:01.701Z,0
2023-05-05T23:46:04.068Z,0
